sensor_id;sensor_type;location;lat;lon;timestamp;P1;durP1;ratioP1;P2;durP2;ratioP2
70126;SDS011;57491;42.694;23.314;2023-03-01T00:01:08;6.07;;;3.80;;
70126;SDS011;57491;42.694;23.314;2023-03-01T00:03:37;5.57;;;3.75;;
70126;SDS011;57491;42.694;23.314;2023-03-01T00:06:05;7.70;;;4.40;;
70126;SDS011;57491;42.694;23.314;2023-03-01T00:08:34;24.27;;;18.48;;
70126;SDS011;57491;42.694;23.314;2023-03-01T00:11:02;23.60;;;16.90;;
70126;SDS011;57491;42.694;23.314;2023-03-01T00:13:31;21.55;;;16.52;;
70126;SDS011;57491;42.694;23.314;2023-03-01T00:15:58;20.33;;;16.02;;
70126;SDS011;57491;42.694;23.314;2023-03-01T00:18:25;18.75;;;13.40;;
70126;SDS011;57491;42.694;23.314;2023-03-01T00:20:53;18.00;;;13.15;;
70126;SDS011;57491;42.694;23.314;2023-03-01T00:23:22;18.75;;;14.27;;
70126;SDS011;57491;42.694;23.314;2023-03-01T00:25:50;17.05;;;13.80;;
70126;SDS011;57491;42.694;23.314;2023-03-01T00:28:17;18.67;;;13.13;;
70126;SDS011;57491;42.694;23.314;2023-03-01T00:30:45;19.05;;;13.30;;
70126;SDS011;57491;42.694;23.314;2023-03-01T00:33:12;13.17;;;9.53;;
70126;SDS011;57491;42.694;23.314;2023-03-01T00:35:40;8.10;;;5.30;;
70126;SDS011;57491;42.694;23.314;2023-03-01T00:38:07;8.55;;;5.40;;
70126;SDS011;57491;42.694;23.314;2023-03-01T00:40:34;7.57;;;4.13;;
70126;SDS011;57491;42.694;23.314;2023-03-01T00:43:03;5.45;;;3.10;;
70126;SDS011;57491;42.694;23.314;2023-03-01T00:45:32;3.63;;;2.38;;
70126;SDS011;57491;42.694;23.314;2023-03-01T00:50:26;5.73;;;3.33;;
70126;SDS011;57491;42.694;23.314;2023-03-01T00:52:53;5.28;;;3.33;;
70126;SDS011;57491;42.694;23.314;2023-03-01T00:57:48;5.32;;;2.55;;
70126;SDS011;57491;42.694;23.314;2023-03-01T01:00:17;3.42;;;2.40;;
70126;SDS011;57491;42.694;23.314;2023-03-01T01:02:45;4.53;;;2.70;;
70126;SDS011;57491;42.694;23.314;2023-03-01T01:05:12;3.97;;;2.35;;
70126;SDS011;57491;42.694;23.314;2023-03-01T01:07:39;2.92;;;2.15;;
70126;SDS011;57491;42.694;23.314;2023-03-01T01:10:06;3.85;;;2.50;;
70126;SDS011;57491;42.694;23.314;2023-03-01T01:12:38;2.95;;;2.40;;
70126;SDS011;57491;42.694;23.314;2023-03-01T01:15:05;4.63;;;2.37;;
70126;SDS011;57491;42.694;23.314;2023-03-01T01:17:34;4.18;;;2.38;;
70126;SDS011;57491;42.694;23.314;2023-03-01T01:20:01;3.22;;;2.42;;
70126;SDS011;57491;42.694;23.314;2023-03-01T01:22:29;3.97;;;2.50;;
70126;SDS011;57491;42.694;23.314;2023-03-01T01:24:56;2.97;;;2.08;;
70126;SDS011;57491;42.694;23.314;2023-03-01T01:27:23;3.13;;;2.13;;
70126;SDS011;57491;42.694;23.314;2023-03-01T01:29:52;3.45;;;2.22;;
70126;SDS011;57491;42.694;23.314;2023-03-01T01:32:19;2.50;;;1.88;;
70126;SDS011;57491;42.694;23.314;2023-03-01T01:34:48;2.53;;;1.98;;
70126;SDS011;57491;42.694;23.314;2023-03-01T01:37:15;2.47;;;1.65;;
70126;SDS011;57491;42.694;23.314;2023-03-01T01:39:42;2.67;;;2.05;;
70126;SDS011;57491;42.694;23.314;2023-03-01T01:42:11;2.53;;;2.22;;
70126;SDS011;57491;42.694;23.314;2023-03-01T01:44:42;2.53;;;2.00;;
70126;SDS011;57491;42.694;23.314;2023-03-01T01:47:13;2.95;;;2.03;;
70126;SDS011;57491;42.694;23.314;2023-03-01T01:49:43;2.03;;;1.70;;
70126;SDS011;57491;42.694;23.314;2023-03-01T01:52:16;2.72;;;2.00;;
70126;SDS011;57491;42.694;23.314;2023-03-01T01:54:47;4.22;;;2.30;;
70126;SDS011;57491;42.694;23.314;2023-03-01T01:57:18;2.20;;;1.80;;
70126;SDS011;57491;42.694;23.314;2023-03-01T01:59:48;2.72;;;1.95;;
70126;SDS011;57491;42.694;23.314;2023-03-01T02:02:19;2.38;;;1.90;;
70126;SDS011;57491;42.694;23.314;2023-03-01T02:04:47;1.85;;;1.70;;
70126;SDS011;57491;42.694;23.314;2023-03-01T02:07:21;2.03;;;1.83;;
70126;SDS011;57491;42.694;23.314;2023-03-01T02:09:51;1.75;;;1.65;;
70126;SDS011;57491;42.694;23.314;2023-03-01T02:12:19;1.52;;;1.42;;
70126;SDS011;57491;42.694;23.314;2023-03-01T02:14:49;1.25;;;1.15;;
70126;SDS011;57491;42.694;23.314;2023-03-01T02:17:17;2.00;;;1.80;;
70126;SDS011;57491;42.694;23.314;2023-03-01T02:19:48;2.28;;;1.98;;
70126;SDS011;57491;42.694;23.314;2023-03-01T02:22:25;1.75;;;1.60;;
70126;SDS011;57491;42.694;23.314;2023-03-01T02:25:00;2.63;;;1.83;;
70126;SDS011;57491;42.694;23.314;2023-03-01T02:27:38;2.75;;;1.80;;
70126;SDS011;57491;42.694;23.314;2023-03-01T02:30:15;2.53;;;1.92;;
70126;SDS011;57491;42.694;23.314;2023-03-01T02:32:42;2.00;;;1.80;;
70126;SDS011;57491;42.694;23.314;2023-03-01T02:35:09;3.55;;;1.70;;
70126;SDS011;57491;42.694;23.314;2023-03-01T02:37:38;3.03;;;1.70;;
70126;SDS011;57491;42.694;23.314;2023-03-01T02:40:08;2.65;;;1.83;;
70126;SDS011;57491;42.694;23.314;2023-03-01T02:42:40;2.47;;;2.22;;
70126;SDS011;57491;42.694;23.314;2023-03-01T02:45:16;2.28;;;2.00;;
70126;SDS011;57491;42.694;23.314;2023-03-01T02:47:44;2.20;;;2.00;;
70126;SDS011;57491;42.694;23.314;2023-03-01T02:50:13;2.65;;;1.75;;
70126;SDS011;57491;42.694;23.314;2023-03-01T02:52:52;2.13;;;1.85;;
70126;SDS011;57491;42.694;23.314;2023-03-01T02:55:24;4.15;;;2.08;;
70126;SDS011;57491;42.694;23.314;2023-03-01T02:57:51;1.70;;;1.60;;
70126;SDS011;57491;42.694;23.314;2023-03-01T03:00:20;2.67;;;1.60;;
70126;SDS011;57491;42.694;23.314;2023-03-01T03:02:51;4.25;;;2.58;;
70126;SDS011;57491;42.694;23.314;2023-03-01T03:05:20;1.67;;;1.50;;
70126;SDS011;57491;42.694;23.314;2023-03-01T03:07:49;2.83;;;1.80;;
70126;SDS011;57491;42.694;23.314;2023-03-01T03:10:18;2.53;;;1.67;;
70126;SDS011;57491;42.694;23.314;2023-03-01T03:12:48;1.77;;;1.58;;
70126;SDS011;57491;42.694;23.314;2023-03-01T03:15:15;1.73;;;1.63;;
70126;SDS011;57491;42.694;23.314;2023-03-01T03:17:44;3.53;;;2.27;;
70126;SDS011;57491;42.694;23.314;2023-03-01T03:20:12;2.47;;;2.10;;
70126;SDS011;57491;42.694;23.314;2023-03-01T03:22:44;3.28;;;2.30;;
70126;SDS011;57491;42.694;23.314;2023-03-01T03:25:12;4.38;;;3.00;;
70126;SDS011;57491;42.694;23.314;2023-03-01T03:27:40;3.92;;;2.75;;
70126;SDS011;57491;42.694;23.314;2023-03-01T03:30:10;3.50;;;2.45;;
70126;SDS011;57491;42.694;23.314;2023-03-01T03:32:39;2.78;;;2.30;;
70126;SDS011;57491;42.694;23.314;2023-03-01T03:37:36;2.60;;;2.10;;
70126;SDS011;57491;42.694;23.314;2023-03-01T03:40:22;2.88;;;2.22;;
70126;SDS011;57491;42.694;23.314;2023-03-01T03:42:49;5.13;;;2.00;;
70126;SDS011;57491;42.694;23.314;2023-03-01T03:45:16;4.13;;;2.40;;
70126;SDS011;57491;42.694;23.314;2023-03-01T03:50:47;2.70;;;2.20;;
70126;SDS011;57491;42.694;23.314;2023-03-01T03:53:16;4.20;;;2.88;;
70126;SDS011;57491;42.694;23.314;2023-03-01T03:55:43;3.65;;;2.67;;
70126;SDS011;57491;42.694;23.314;2023-03-01T03:58:15;3.85;;;2.72;;
70126;SDS011;57491;42.694;23.314;2023-03-01T04:00:45;3.85;;;2.60;;
70126;SDS011;57491;42.694;23.314;2023-03-01T04:03:31;3.25;;;2.95;;
70126;SDS011;57491;42.694;23.314;2023-03-01T04:06:02;3.33;;;2.50;;
70126;SDS011;57491;42.694;23.314;2023-03-01T04:08:31;3.63;;;2.72;;
70126;SDS011;57491;42.694;23.314;2023-03-01T04:10:59;5.10;;;2.50;;
70126;SDS011;57491;42.694;23.314;2023-03-01T04:13:48;3.97;;;2.63;;
70126;SDS011;57491;42.694;23.314;2023-03-01T04:16:16;2.63;;;2.20;;
70126;SDS011;57491;42.694;23.314;2023-03-01T04:18:43;3.03;;;2.15;;
70126;SDS011;57491;42.694;23.314;2023-03-01T04:21:12;3.07;;;2.30;;
70126;SDS011;57491;42.694;23.314;2023-03-01T04:23:39;2.92;;;1.88;;
70126;SDS011;57491;42.694;23.314;2023-03-01T04:26:07;2.33;;;1.92;;
70126;SDS011;57491;42.694;23.314;2023-03-01T04:28:35;2.65;;;2.08;;
70126;SDS011;57491;42.694;23.314;2023-03-01T04:31:06;2.88;;;2.00;;
70126;SDS011;57491;42.694;23.314;2023-03-01T04:33:39;2.83;;;2.25;;
70126;SDS011;57491;42.694;23.314;2023-03-01T04:36:08;3.67;;;2.55;;
70126;SDS011;57491;42.694;23.314;2023-03-01T04:38:37;3.85;;;2.20;;
70126;SDS011;57491;42.694;23.314;2023-03-01T04:41:05;2.83;;;2.25;;
70126;SDS011;57491;42.694;23.314;2023-03-01T04:43:33;2.92;;;2.20;;
70126;SDS011;57491;42.694;23.314;2023-03-01T04:46:01;2.77;;;2.00;;
70126;SDS011;57491;42.694;23.314;2023-03-01T04:48:29;3.20;;;2.30;;
70126;SDS011;57491;42.694;23.314;2023-03-01T04:50:58;2.80;;;1.80;;
70126;SDS011;57491;42.694;23.314;2023-03-01T04:53:25;3.42;;;2.10;;
70126;SDS011;57491;42.694;23.314;2023-03-01T04:55:55;2.92;;;2.33;;
70126;SDS011;57491;42.694;23.314;2023-03-01T04:58:22;3.50;;;2.40;;
70126;SDS011;57491;42.694;23.314;2023-03-01T05:00:50;5.07;;;2.50;;
70126;SDS011;57491;42.694;23.314;2023-03-01T05:03:17;3.43;;;2.23;;
70126;SDS011;57491;42.694;23.314;2023-03-01T05:05:45;4.43;;;2.72;;
70126;SDS011;57491;42.694;23.314;2023-03-01T05:08:13;3.63;;;2.80;;
70126;SDS011;57491;42.694;23.314;2023-03-01T05:10:44;4.80;;;2.35;;
70126;SDS011;57491;42.694;23.314;2023-03-01T05:13:14;4.15;;;2.90;;
70126;SDS011;57491;42.694;23.314;2023-03-01T05:15:46;5.20;;;3.00;;
70126;SDS011;57491;42.694;23.314;2023-03-01T05:18:14;3.90;;;2.90;;
70126;SDS011;57491;42.694;23.314;2023-03-01T05:20:41;3.58;;;2.83;;
70126;SDS011;57491;42.694;23.314;2023-03-01T05:23:10;5.90;;;2.72;;
70126;SDS011;57491;42.694;23.314;2023-03-01T05:25:37;4.95;;;2.78;;
70126;SDS011;57491;42.694;23.314;2023-03-01T05:28:05;4.55;;;3.40;;
70126;SDS011;57491;42.694;23.314;2023-03-01T05:30:36;5.20;;;3.38;;
70126;SDS011;57491;42.694;23.314;2023-03-01T05:33:05;6.50;;;3.30;;
70126;SDS011;57491;42.694;23.314;2023-03-01T05:35:39;6.13;;;3.63;;
70126;SDS011;57491;42.694;23.314;2023-03-01T05:38:07;5.63;;;3.80;;
70126;SDS011;57491;42.694;23.314;2023-03-01T05:40:34;6.90;;;4.00;;
70126;SDS011;57491;42.694;23.314;2023-03-01T05:43:01;7.28;;;4.00;;
70126;SDS011;57491;42.694;23.314;2023-03-01T05:45:30;5.50;;;3.42;;
70126;SDS011;57491;42.694;23.314;2023-03-01T05:48:00;6.47;;;3.83;;
70126;SDS011;57491;42.694;23.314;2023-03-01T05:50:28;8.73;;;3.78;;
70126;SDS011;57491;42.694;23.314;2023-03-01T05:52:58;5.47;;;2.90;;
70126;SDS011;57491;42.694;23.314;2023-03-01T05:55:28;5.50;;;3.40;;
70126;SDS011;57491;42.694;23.314;2023-03-01T05:57:57;6.15;;;3.58;;
70126;SDS011;57491;42.694;23.314;2023-03-01T06:00:25;5.07;;;3.33;;
70126;SDS011;57491;42.694;23.314;2023-03-01T06:02:53;5.15;;;3.50;;
70126;SDS011;57491;42.694;23.314;2023-03-01T06:05:22;4.67;;;3.47;;
70126;SDS011;57491;42.694;23.314;2023-03-01T06:07:49;4.65;;;2.92;;
70126;SDS011;57491;42.694;23.314;2023-03-01T06:10:17;5.07;;;3.40;;
70126;SDS011;57491;42.694;23.314;2023-03-01T06:12:46;3.65;;;2.55;;
70126;SDS011;57491;42.694;23.314;2023-03-01T06:15:15;5.97;;;3.85;;
70126;SDS011;57491;42.694;23.314;2023-03-01T06:17:43;5.50;;;3.80;;
70126;SDS011;57491;42.694;23.314;2023-03-01T06:20:12;4.00;;;2.65;;
70126;SDS011;57491;42.694;23.314;2023-03-01T06:22:43;4.28;;;2.70;;
70126;SDS011;57491;42.694;23.314;2023-03-01T06:25:10;4.72;;;2.72;;
70126;SDS011;57491;42.694;23.314;2023-03-01T06:27:38;3.97;;;2.88;;
70126;SDS011;57491;42.694;23.314;2023-03-01T06:30:07;4.40;;;2.50;;
70126;SDS011;57491;42.694;23.314;2023-03-01T06:32:36;5.82;;;2.70;;
70126;SDS011;57491;42.694;23.314;2023-03-01T06:35:07;4.70;;;2.70;;
70126;SDS011;57491;42.694;23.314;2023-03-01T06:37:35;4.22;;;2.88;;
70126;SDS011;57491;42.694;23.314;2023-03-01T06:40:05;4.67;;;2.37;;
70126;SDS011;57491;42.694;23.314;2023-03-01T06:42:33;6.75;;;2.67;;
70126;SDS011;57491;42.694;23.314;2023-03-01T06:45:01;4.97;;;2.70;;
70126;SDS011;57491;42.694;23.314;2023-03-01T06:47:28;4.68;;;2.53;;
70126;SDS011;57491;42.694;23.314;2023-03-01T06:49:55;5.50;;;2.40;;
70126;SDS011;57491;42.694;23.314;2023-03-01T06:52:22;6.10;;;3.03;;
70126;SDS011;57491;42.694;23.314;2023-03-01T06:54:49;4.95;;;2.63;;
70126;SDS011;57491;42.694;23.314;2023-03-01T06:57:17;3.40;;;2.65;;
70126;SDS011;57491;42.694;23.314;2023-03-01T06:59:46;5.65;;;2.85;;
70126;SDS011;57491;42.694;23.314;2023-03-01T07:04:40;3.65;;;2.42;;
70126;SDS011;57491;42.694;23.314;2023-03-01T07:07:08;3.80;;;2.72;;
70126;SDS011;57491;42.694;23.314;2023-03-01T07:09:35;4.83;;;2.33;;
70126;SDS011;57491;42.694;23.314;2023-03-01T07:12:02;5.77;;;2.87;;
70126;SDS011;57491;42.694;23.314;2023-03-01T07:14:31;5.18;;;3.13;;
70126;SDS011;57491;42.694;23.314;2023-03-01T07:16:58;4.75;;;2.97;;
70126;SDS011;57491;42.694;23.314;2023-03-01T07:19:25;6.32;;;2.90;;
70126;SDS011;57491;42.694;23.314;2023-03-01T07:21:52;7.15;;;3.20;;
70126;SDS011;57491;42.694;23.314;2023-03-01T07:24:21;5.10;;;2.97;;
70126;SDS011;57491;42.694;23.314;2023-03-01T07:26:48;2.95;;;2.45;;
70126;SDS011;57491;42.694;23.314;2023-03-01T07:29:16;4.72;;;2.80;;
70126;SDS011;57491;42.694;23.314;2023-03-01T07:31:45;5.25;;;2.85;;
70126;SDS011;57491;42.694;23.314;2023-03-01T07:34:12;7.13;;;3.00;;
70126;SDS011;57491;42.694;23.314;2023-03-01T07:36:39;5.07;;;2.60;;
70126;SDS011;57491;42.694;23.314;2023-03-01T07:39:08;5.82;;;2.83;;
70126;SDS011;57491;42.694;23.314;2023-03-01T07:41:36;8.45;;;2.95;;
70126;SDS011;57491;42.694;23.314;2023-03-01T07:44:03;6.90;;;3.13;;
70126;SDS011;57491;42.694;23.314;2023-03-01T07:46:30;5.15;;;2.55;;
70126;SDS011;57491;42.694;23.314;2023-03-01T07:48:59;5.25;;;2.83;;
70126;SDS011;57491;42.694;23.314;2023-03-01T07:51:26;4.50;;;2.85;;
70126;SDS011;57491;42.694;23.314;2023-03-01T07:53:53;5.55;;;2.78;;
70126;SDS011;57491;42.694;23.314;2023-03-01T07:56:20;8.10;;;2.87;;
70126;SDS011;57491;42.694;23.314;2023-03-01T07:58:47;3.80;;;2.50;;
70126;SDS011;57491;42.694;23.314;2023-03-01T08:01:15;5.25;;;2.22;;
70126;SDS011;57491;42.694;23.314;2023-03-01T08:03:43;6.40;;;2.53;;
70126;SDS011;57491;42.694;23.314;2023-03-01T08:06:13;3.60;;;2.37;;
70126;SDS011;57491;42.694;23.314;2023-03-01T08:08:41;3.90;;;3.08;;
70126;SDS011;57491;42.694;23.314;2023-03-01T08:11:09;5.00;;;3.00;;
70126;SDS011;57491;42.694;23.314;2023-03-01T08:13:38;5.82;;;2.95;;
70126;SDS011;57491;42.694;23.314;2023-03-01T08:16:06;9.80;;;3.40;;
70126;SDS011;57491;42.694;23.314;2023-03-01T08:18:34;7.32;;;4.13;;
70126;SDS011;57491;42.694;23.314;2023-03-01T08:21:02;4.18;;;2.50;;
70126;SDS011;57491;42.694;23.314;2023-03-01T08:23:31;5.30;;;3.90;;
70126;SDS011;57491;42.694;23.314;2023-03-01T08:26:05;6.38;;;2.90;;
70126;SDS011;57491;42.694;23.314;2023-03-01T08:28:34;6.65;;;3.28;;
70126;SDS011;57491;42.694;23.314;2023-03-01T08:31:01;3.88;;;2.40;;
70126;SDS011;57491;42.694;23.314;2023-03-01T08:33:29;4.57;;;2.40;;
70126;SDS011;57491;42.694;23.314;2023-03-01T08:36:03;6.50;;;2.80;;
70126;SDS011;57491;42.694;23.314;2023-03-01T08:38:33;6.50;;;3.33;;
70126;SDS011;57491;42.694;23.314;2023-03-01T08:41:01;6.00;;;3.22;;
70126;SDS011;57491;42.694;23.314;2023-03-01T08:43:29;4.80;;;3.15;;
70126;SDS011;57491;42.694;23.314;2023-03-01T08:45:57;5.25;;;3.75;;
70126;SDS011;57491;42.694;23.314;2023-03-01T08:48:24;5.45;;;3.55;;
70126;SDS011;57491;42.694;23.314;2023-03-01T08:50:51;3.63;;;2.85;;
70126;SDS011;57491;42.694;23.314;2023-03-01T08:53:18;4.72;;;3.47;;
70126;SDS011;57491;42.694;23.314;2023-03-01T08:55:47;4.93;;;3.13;;
70126;SDS011;57491;42.694;23.314;2023-03-01T08:58:14;2.97;;;2.33;;
70126;SDS011;57491;42.694;23.314;2023-03-01T09:00:41;2.97;;;2.67;;
70126;SDS011;57491;42.694;23.314;2023-03-01T09:03:08;4.38;;;2.70;;
70126;SDS011;57491;42.694;23.314;2023-03-01T09:05:35;3.25;;;2.92;;
70126;SDS011;57491;42.694;23.314;2023-03-01T09:08:02;6.15;;;3.45;;
70126;SDS011;57491;42.694;23.314;2023-03-01T09:10:29;3.03;;;2.35;;
70126;SDS011;57491;42.694;23.314;2023-03-01T09:12:58;3.17;;;2.80;;
70126;SDS011;57491;42.694;23.314;2023-03-01T09:15:25;5.85;;;3.08;;
70126;SDS011;57491;42.694;23.314;2023-03-01T09:17:52;5.97;;;2.35;;
70126;SDS011;57491;42.694;23.314;2023-03-01T09:20:20;6.27;;;2.63;;
70126;SDS011;57491;42.694;23.314;2023-03-01T09:22:47;3.00;;;2.03;;
70126;SDS011;57491;42.694;23.314;2023-03-01T09:25:14;5.10;;;2.78;;
70126;SDS011;57491;42.694;23.314;2023-03-01T09:27:41;4.22;;;2.10;;
70126;SDS011;57491;42.694;23.314;2023-03-01T09:30:10;3.55;;;2.50;;
70126;SDS011;57491;42.694;23.314;2023-03-01T09:32:38;3.45;;;2.53;;
70126;SDS011;57491;42.694;23.314;2023-03-01T09:35:08;5.93;;;3.20;;
70126;SDS011;57491;42.694;23.314;2023-03-01T09:37:35;5.90;;;3.17;;
70126;SDS011;57491;42.694;23.314;2023-03-01T09:40:04;8.13;;;3.22;;
70126;SDS011;57491;42.694;23.314;2023-03-01T09:42:34;7.70;;;3.03;;
70126;SDS011;57491;42.694;23.314;2023-03-01T09:45:03;9.10;;;4.20;;
70126;SDS011;57491;42.694;23.314;2023-03-01T09:47:34;9.77;;;3.70;;
70126;SDS011;57491;42.694;23.314;2023-03-01T09:50:03;4.30;;;3.00;;
70126;SDS011;57491;42.694;23.314;2023-03-01T09:52:38;5.55;;;3.30;;
70126;SDS011;57491;42.694;23.314;2023-03-01T09:55:09;5.18;;;2.65;;
70126;SDS011;57491;42.694;23.314;2023-03-01T09:57:41;3.28;;;2.47;;
70126;SDS011;57491;42.694;23.314;2023-03-01T10:00:19;2.85;;;1.92;;
70126;SDS011;57491;42.694;23.314;2023-03-01T10:02:59;2.40;;;2.00;;
70126;SDS011;57491;42.694;23.314;2023-03-01T10:05:37;3.15;;;2.30;;
70126;SDS011;57491;42.694;23.314;2023-03-01T10:08:18;5.70;;;2.10;;
70126;SDS011;57491;42.694;23.314;2023-03-01T10:10:54;1.67;;;1.27;;
70126;SDS011;57491;42.694;23.314;2023-03-01T10:13:23;4.72;;;2.05;;
70126;SDS011;57491;42.694;23.314;2023-03-01T10:15:56;3.55;;;1.90;;
70126;SDS011;57491;42.694;23.314;2023-03-01T10:18:29;3.70;;;2.10;;
70126;SDS011;57491;42.694;23.314;2023-03-01T10:21:00;3.38;;;2.28;;
70126;SDS011;57491;42.694;23.314;2023-03-01T10:23:30;2.80;;;1.80;;
70126;SDS011;57491;42.694;23.314;2023-03-01T10:26:07;4.25;;;2.22;;
70126;SDS011;57491;42.694;23.314;2023-03-01T10:28:54;2.42;;;1.83;;
70126;SDS011;57491;42.694;23.314;2023-03-01T10:31:31;2.95;;;1.90;;
70126;SDS011;57491;42.694;23.314;2023-03-01T10:34:14;3.85;;;2.08;;
70126;SDS011;57491;42.694;23.314;2023-03-01T10:36:43;2.20;;;2.00;;
70126;SDS011;57491;42.694;23.314;2023-03-01T10:39:14;8.60;;;3.90;;
70126;SDS011;57491;42.694;23.314;2023-03-01T10:41:56;5.15;;;2.95;;
70126;SDS011;57491;42.694;23.314;2023-03-01T10:44:39;4.22;;;2.88;;
70126;SDS011;57491;42.694;23.314;2023-03-01T10:50:02;3.80;;;2.60;;
70126;SDS011;57491;42.694;23.314;2023-03-01T10:52:32;1.45;;;1.20;;
70126;SDS011;57491;42.694;23.314;2023-03-01T10:55:01;3.35;;;1.73;;
70126;SDS011;57491;42.694;23.314;2023-03-01T10:57:35;3.28;;;1.60;;
70126;SDS011;57491;42.694;23.314;2023-03-01T11:03:03;4.05;;;2.35;;
70126;SDS011;57491;42.694;23.314;2023-03-01T11:05:41;3.33;;;1.92;;
70126;SDS011;57491;42.694;23.314;2023-03-01T11:08:29;2.20;;;1.40;;
70126;SDS011;57491;42.694;23.314;2023-03-01T11:11:03;4.57;;;3.00;;
70126;SDS011;57491;42.694;23.314;2023-03-01T11:13:32;3.45;;;1.67;;
70126;SDS011;57491;42.694;23.314;2023-03-01T11:16:00;4.53;;;2.33;;
70126;SDS011;57491;42.694;23.314;2023-03-01T11:18:30;4.78;;;2.60;;
70126;SDS011;57491;42.694;23.314;2023-03-01T11:23:27;4.10;;;2.42;;
70126;SDS011;57491;42.694;23.314;2023-03-01T11:25:58;3.92;;;2.10;;
70126;SDS011;57491;42.694;23.314;2023-03-01T11:28:28;3.13;;;2.00;;
70126;SDS011;57491;42.694;23.314;2023-03-01T11:30:57;5.10;;;2.03;;
70126;SDS011;57491;42.694;23.314;2023-03-01T11:33:33;5.95;;;2.55;;
70126;SDS011;57491;42.694;23.314;2023-03-01T11:36:07;8.27;;;2.95;;
70126;SDS011;57491;42.694;23.314;2023-03-01T11:38:42;2.67;;;1.63;;
70126;SDS011;57491;42.694;23.314;2023-03-01T11:41:12;4.55;;;2.10;;
70126;SDS011;57491;42.694;23.314;2023-03-01T11:43:44;4.05;;;2.35;;
70126;SDS011;57491;42.694;23.314;2023-03-01T11:46:28;5.30;;;2.85;;
70126;SDS011;57491;42.694;23.314;2023-03-01T11:49:13;2.65;;;1.73;;
70126;SDS011;57491;42.694;23.314;2023-03-01T11:51:53;3.15;;;1.88;;
70126;SDS011;57491;42.694;23.314;2023-03-01T11:54:31;5.07;;;1.90;;
70126;SDS011;57491;42.694;23.314;2023-03-01T11:57:13;4.45;;;2.22;;
70126;SDS011;57491;42.694;23.314;2023-03-01T12:00:02;2.20;;;2.00;;
70126;SDS011;57491;42.694;23.314;2023-03-01T12:08:52;4.28;;;3.03;;
70126;SDS011;57491;42.694;23.314;2023-03-01T12:11:32;4.22;;;2.95;;
70126;SDS011;57491;42.694;23.314;2023-03-01T12:14:17;4.63;;;3.20;;
70126;SDS011;57491;42.694;23.314;2023-03-01T12:17:19;5.07;;;3.22;;
70126;SDS011;57491;42.694;23.314;2023-03-01T12:23:11;2.92;;;2.60;;
70126;SDS011;57491;42.694;23.314;2023-03-01T12:25:56;3.08;;;2.55;;
70126;SDS011;57491;42.694;23.314;2023-03-01T12:28:42;5.13;;;3.22;;
70126;SDS011;57491;42.694;23.314;2023-03-01T12:31:39;4.85;;;3.08;;
70126;SDS011;57491;42.694;23.314;2023-03-01T12:37:18;6.35;;;2.80;;
70126;SDS011;57491;42.694;23.314;2023-03-01T12:39:56;7.35;;;2.70;;
70126;SDS011;57491;42.694;23.314;2023-03-01T12:42:42;4.80;;;2.90;;
70126;SDS011;57491;42.694;23.314;2023-03-01T12:45:27;6.72;;;3.30;;
70126;SDS011;57491;42.694;23.314;2023-03-01T12:48:21;6.13;;;2.95;;
70126;SDS011;57491;42.694;23.314;2023-03-01T12:50:58;4.97;;;3.10;;
70126;SDS011;57491;42.694;23.314;2023-03-01T12:53:29;5.55;;;3.55;;
70126;SDS011;57491;42.694;23.314;2023-03-01T12:56:02;4.05;;;2.90;;
70126;SDS011;57491;42.694;23.314;2023-03-01T12:58:35;4.35;;;3.08;;
70126;SDS011;57491;42.694;23.314;2023-03-01T13:01:13;4.93;;;3.17;;
70126;SDS011;57491;42.694;23.314;2023-03-01T13:03:56;4.20;;;2.70;;
70126;SDS011;57491;42.694;23.314;2023-03-01T13:06:32;5.32;;;2.40;;
70126;SDS011;57491;42.694;23.314;2023-03-01T13:09:08;5.45;;;3.10;;
70126;SDS011;57491;42.694;23.314;2023-03-01T13:11:46;4.03;;;2.63;;
70126;SDS011;57491;42.694;23.314;2023-03-01T13:20:12;3.00;;;2.50;;
70126;SDS011;57491;42.694;23.314;2023-03-01T13:22:41;3.70;;;2.90;;
70126;SDS011;57491;42.694;23.314;2023-03-01T13:25:12;5.40;;;2.87;;
70126;SDS011;57491;42.694;23.314;2023-03-01T13:27:43;5.15;;;3.15;;
70126;SDS011;57491;42.694;23.314;2023-03-01T13:36:10;6.03;;;2.30;;
70126;SDS011;57491;42.694;23.314;2023-03-01T13:38:44;5.10;;;2.75;;
70126;SDS011;57491;42.694;23.314;2023-03-01T13:41:13;5.30;;;2.78;;
70126;SDS011;57491;42.694;23.314;2023-03-01T13:43:41;3.75;;;2.63;;
70126;SDS011;57491;42.694;23.314;2023-03-01T13:46:14;5.55;;;3.53;;
70126;SDS011;57491;42.694;23.314;2023-03-01T13:48:45;4.50;;;2.90;;
70126;SDS011;57491;42.694;23.314;2023-03-01T13:51:20;6.55;;;3.80;;
70126;SDS011;57491;42.694;23.314;2023-03-01T13:53:50;5.35;;;2.97;;
70126;SDS011;57491;42.694;23.314;2023-03-01T13:56:19;4.88;;;2.80;;
70126;SDS011;57491;42.694;23.314;2023-03-01T13:58:51;4.65;;;3.53;;
70126;SDS011;57491;42.694;23.314;2023-03-01T14:01:23;3.55;;;2.38;;
70126;SDS011;57491;42.694;23.314;2023-03-01T14:03:52;5.65;;;2.80;;
70126;SDS011;57491;42.694;23.314;2023-03-01T14:06:20;4.43;;;2.83;;
70126;SDS011;57491;42.694;23.314;2023-03-01T14:08:49;4.07;;;2.72;;
70126;SDS011;57491;42.694;23.314;2023-03-01T14:11:24;3.00;;;2.40;;
70126;SDS011;57491;42.694;23.314;2023-03-01T14:14:30;9.52;;;3.00;;
70126;SDS011;57491;42.694;23.314;2023-03-01T14:20:09;7.95;;;3.33;;
70126;SDS011;57491;42.694;23.314;2023-03-01T14:22:41;4.13;;;3.00;;
70126;SDS011;57491;42.694;23.314;2023-03-01T14:25:23;8.20;;;3.47;;
70126;SDS011;57491;42.694;23.314;2023-03-01T14:27:55;8.60;;;2.60;;
70126;SDS011;57491;42.694;23.314;2023-03-01T14:30:42;9.52;;;2.90;;
70126;SDS011;57491;42.694;23.314;2023-03-01T14:33:19;5.85;;;2.85;;
70126;SDS011;57491;42.694;23.314;2023-03-01T14:35:57;4.47;;;2.85;;
70126;SDS011;57491;42.694;23.314;2023-03-01T14:38:31;6.40;;;2.58;;
70126;SDS011;57491;42.694;23.314;2023-03-01T14:41:01;3.80;;;2.70;;
70126;SDS011;57491;42.694;23.314;2023-03-01T14:43:30;3.55;;;2.40;;
70126;SDS011;57491;42.694;23.314;2023-03-01T14:45:58;3.15;;;2.25;;
70126;SDS011;57491;42.694;23.314;2023-03-01T14:48:26;3.20;;;2.17;;
70126;SDS011;57491;42.694;23.314;2023-03-01T14:50:55;4.00;;;2.38;;
70126;SDS011;57491;42.694;23.314;2023-03-01T14:53:23;5.53;;;2.55;;
70126;SDS011;57491;42.694;23.314;2023-03-01T14:55:52;6.28;;;3.63;;
70126;SDS011;57491;42.694;23.314;2023-03-01T14:58:22;4.40;;;2.50;;
70126;SDS011;57491;42.694;23.314;2023-03-01T15:00:51;3.85;;;2.22;;
70126;SDS011;57491;42.694;23.314;2023-03-01T15:03:27;5.68;;;2.58;;
70126;SDS011;57491;42.694;23.314;2023-03-01T15:05:59;4.20;;;2.30;;
70126;SDS011;57491;42.694;23.314;2023-03-01T15:08:28;7.53;;;3.08;;
70126;SDS011;57491;42.694;23.314;2023-03-01T15:10:59;6.60;;;2.53;;
70126;SDS011;57491;42.694;23.314;2023-03-01T15:13:29;7.45;;;3.88;;
70126;SDS011;57491;42.694;23.314;2023-03-01T15:16:01;7.88;;;2.90;;
70126;SDS011;57491;42.694;23.314;2023-03-01T15:18:34;4.18;;;2.90;;
70126;SDS011;57491;42.694;23.314;2023-03-01T15:21:06;6.00;;;3.25;;
70126;SDS011;57491;42.694;23.314;2023-03-01T15:23:35;6.63;;;3.25;;
70126;SDS011;57491;42.694;23.314;2023-03-01T15:26:06;9.77;;;3.85;;
70126;SDS011;57491;42.694;23.314;2023-03-01T15:28:49;12.13;;;3.97;;
70126;SDS011;57491;42.694;23.314;2023-03-01T15:31:19;9.20;;;3.38;;
70126;SDS011;57491;42.694;23.314;2023-03-01T15:33:50;11.82;;;4.20;;
70126;SDS011;57491;42.694;23.314;2023-03-01T15:36:31;5.22;;;3.00;;
70126;SDS011;57491;42.694;23.314;2023-03-01T15:39:03;11.27;;;3.80;;
70126;SDS011;57491;42.694;23.314;2023-03-01T15:41:32;8.98;;;3.72;;
70126;SDS011;57491;42.694;23.314;2023-03-01T15:44:14;4.80;;;2.60;;